createdAt,value
2023-04-03T00:00:21.537Z,7.11
2023-04-03T00:02:48.137Z,6.13
2023-04-03T00:05:14.850Z,6.53
2023-04-03T00:07:41.507Z,6.69
2023-04-03T00:10:08.933Z,6.66
2023-04-03T00:12:35.665Z,6.76
2023-04-03T00:15:02.135Z,7.03
2023-04-03T00:17:28.709Z,7.08
2023-04-03T00:19:55.188Z,6.94
2023-04-03T00:22:21.778Z,7.35
2023-04-03T00:24:48.248Z,7.37
2023-04-03T00:27:14.755Z,7.17
2023-04-03T00:29:41.226Z,7.17
2023-04-03T00:32:07.756Z,7.20
2023-04-03T00:34:34.370Z,7.31
2023-04-03T00:37:00.985Z,7.36
2023-04-03T00:39:28.309Z,7.20
2023-04-03T00:41:54.836Z,7.07
2023-04-03T00:44:36.565Z,7.35
2023-04-03T00:47:05.362Z,7.01
2023-04-03T00:49:32.064Z,7.36
2023-04-03T00:51:59.260Z,7.36
2023-04-03T00:54:26.786Z,6.42
2023-04-03T00:56:54.638Z,6.69
2023-04-03T00:59:32.345Z,6.39
2023-04-03T01:02:00.242Z,6.32
2023-04-03T01:04:40.432Z,6.18
2023-04-03T01:07:10.455Z,6.06
2023-04-03T01:09:37.816Z,6.20
2023-04-03T01:12:31.324Z,5.80
2023-04-03T01:15:00.562Z,6.29
2023-04-03T01:17:36.262Z,6.41
2023-04-03T01:20:35.993Z,6.61
2023-04-03T01:23:14.539Z,6.57
2023-04-03T01:25:45.780Z,6.70
2023-04-03T01:28:16.491Z,6.63
2023-04-03T01:31:06.303Z,6.75
2023-04-03T01:33:32.893Z,6.74
2023-04-03T01:35:59.470Z,6.75
2023-04-03T01:38:26.587Z,6.60
2023-04-03T01:40:53.073Z,6.91
2023-04-03T01:43:19.580Z,6.88
2023-04-03T01:45:47.409Z,6.79
2023-04-03T01:48:14.444Z,6.68
2023-04-03T01:50:41.013Z,6.94
2023-04-03T01:53:07.539Z,6.97
2023-04-03T01:55:34.080Z,6.86
2023-04-03T01:58:00.619Z,6.87
2023-04-03T02:00:27.655Z,6.33
2023-04-03T02:02:54.438Z,6.35
2023-04-03T02:05:21.079Z,6.33
2023-04-03T02:07:47.785Z,5.88
2023-04-03T02:10:14.461Z,6.18
2023-04-03T02:12:41.263Z,6.26
2023-04-03T02:15:08.251Z,5.92
2023-04-03T02:17:37.606Z,6.34
2023-04-03T02:20:05.027Z,6.61
2023-04-03T02:22:31.817Z,6.36
2023-04-03T02:24:58.366Z,6.39
2023-04-03T02:27:25.267Z,6.13
2023-04-03T02:29:51.722Z,6.23
2023-04-03T02:32:18.253Z,6.24
2023-04-03T02:34:44.796Z,6.12
2023-04-03T02:37:11.333Z,5.62
2023-04-03T02:39:38.099Z,6.04
2023-04-03T02:42:04.853Z,5.74
2023-04-03T02:44:31.688Z,5.95
2023-04-03T02:46:58.220Z,5.67
2023-04-03T02:49:24.944Z,6.04
2023-04-03T02:51:52.239Z,5.41
2023-04-03T02:54:18.852Z,5.97
2023-04-03T02:56:45.448Z,6.05
2023-04-03T02:59:11.957Z,6.19
2023-04-03T03:01:38.614Z,6.25
2023-04-03T03:04:05.319Z,6.15
2023-04-03T03:06:31.794Z,6.42
2023-04-03T03:08:58.256Z,6.50
2023-04-03T03:11:24.783Z,6.57
2023-04-03T03:13:51.528Z,6.49
2023-04-03T03:16:18.339Z,6.50
2023-04-03T03:18:44.848Z,6.52
2023-04-03T03:21:11.821Z,6.22
2023-04-03T03:23:38.431Z,6.12
2023-04-03T03:26:07.817Z,6.18
2023-04-03T03:28:34.501Z,5.88
2023-04-03T03:31:02.070Z,5.69
2023-04-03T03:33:28.730Z,5.82
2023-04-03T03:35:55.682Z,5.57
2023-04-03T03:38:22.982Z,5.30
2023-04-03T03:40:49.830Z,5.55
2023-04-03T03:43:16.863Z,5.38
2023-04-03T03:45:43.469Z,5.40
2023-04-03T03:48:09.960Z,5.70
2023-04-03T03:50:36.542Z,5.69
2023-04-03T03:53:03.052Z,5.82
2023-04-03T03:55:29.652Z,5.83
2023-04-03T03:57:56.524Z,5.78
2023-04-03T04:00:23.139Z,5.21
2023-04-03T04:02:49.750Z,5.69
2023-04-03T04:05:16.374Z,5.53
2023-04-03T04:07:43.181Z,5.80
2023-04-03T04:10:10.088Z,5.95
2023-04-03T04:12:36.892Z,5.78
2023-04-03T04:15:04.393Z,6.00
2023-04-03T04:17:31.278Z,6.02
2023-04-03T04:19:57.945Z,5.98
2023-04-03T04:22:24.773Z,5.69
2023-04-03T04:24:51.317Z,5.84
2023-04-03T04:27:17.905Z,5.69
2023-04-03T04:29:44.394Z,5.70
2023-04-03T04:32:11.166Z,5.60
2023-04-03T04:34:37.745Z,5.56
2023-04-03T04:37:04.408Z,5.71
2023-04-03T04:39:31.242Z,5.74
2023-04-03T04:41:57.832Z,5.94
2023-04-03T04:44:24.578Z,5.58
2023-04-03T04:46:51.100Z,5.62
2023-04-03T04:49:18.082Z,5.71
2023-04-03T04:51:51.684Z,5.52
2023-04-03T04:54:19.102Z,5.87
2023-04-03T04:56:45.857Z,5.74
2023-04-03T04:59:12.370Z,5.75
2023-04-03T05:01:39.034Z,5.32
2023-04-03T05:04:05.774Z,5.78
2023-04-03T05:06:32.923Z,5.51
2023-04-03T05:09:00.724Z,5.86
2023-04-03T05:11:27.495Z,5.87
2023-04-03T05:13:53.966Z,5.78
2023-04-03T05:16:20.581Z,5.51
2023-04-03T05:18:47.205Z,5.60
2023-04-03T05:21:13.681Z,5.80
2023-04-03T05:23:40.284Z,5.61
2023-04-03T05:26:06.921Z,5.68
2023-04-03T05:28:33.463Z,5.55
2023-04-03T05:31:00.309Z,5.79
2023-04-03T05:33:27.346Z,5.44
2023-04-03T05:35:55.101Z,5.26
2023-04-03T05:38:21.616Z,5.31
2023-04-03T05:40:48.410Z,5.23
2023-04-03T05:43:15.033Z,5.39
2023-04-03T05:45:41.870Z,5.32
2023-04-03T05:48:08.382Z,5.07
2023-04-03T05:50:34.905Z,5.34
2023-04-03T05:53:03.370Z,5.21
2023-04-03T05:55:29.873Z,5.02
2023-04-03T05:57:56.524Z,5.00
2023-04-03T06:00:23.569Z,4.99
2023-04-03T06:02:50.614Z,5.51
2023-04-03T06:05:17.256Z,4.72
2023-04-03T06:07:45.605Z,4.89
2023-04-03T06:10:13.697Z,4.71
2023-04-03T06:12:40.501Z,4.89
2023-04-03T06:15:09.244Z,4.81
2023-04-03T06:17:36.001Z,4.77
2023-04-03T06:20:03.087Z,4.72
2023-04-03T06:22:30.989Z,4.30
2023-04-03T06:24:58.377Z,4.35
2023-04-03T06:27:25.221Z,4.59
2023-04-03T06:29:51.992Z,4.46
2023-04-03T06:32:18.445Z,4.83
2023-04-03T06:34:44.931Z,5.37
2023-04-03T06:37:23.637Z,5.35
2023-04-03T06:39:50.377Z,5.25
2023-04-03T06:42:17.203Z,5.21
2023-04-03T06:44:43.700Z,4.92
2023-04-03T06:47:17.232Z,4.84
2023-04-03T06:49:44.011Z,4.71
2023-04-03T06:52:10.866Z,5.04
2023-04-03T06:54:37.478Z,4.57
2023-04-03T06:57:04.310Z,4.57
2023-04-03T06:59:31.036Z,5.13
2023-04-03T07:01:57.754Z,5.00
2023-04-03T07:04:24.315Z,4.86
2023-04-03T07:06:51.670Z,4.67
2023-04-03T07:09:18.190Z,5.23
2023-04-03T07:11:44.676Z,5.01
2023-04-03T07:14:11.150Z,5.37
2023-04-03T07:16:39.570Z,5.18
2023-04-03T07:19:09.776Z,5.49
2023-04-03T07:21:36.446Z,5.82
2023-04-03T07:24:03.045Z,5.64
2023-04-03T07:26:30.587Z,5.66
2023-04-03T07:29:05.528Z,5.08
2023-04-03T07:31:32.421Z,5.76
2023-04-03T07:33:59.202Z,5.81
2023-04-03T07:36:26.029Z,5.11
2023-04-03T07:38:52.667Z,6.14
2023-04-03T07:41:21.053Z,6.32
2023-04-03T07:43:48.085Z,6.24
2023-04-03T07:46:15.168Z,6.65
2023-04-03T07:48:41.751Z,6.31
2023-04-03T07:51:08.620Z,6.30
2023-04-03T07:53:35.251Z,6.62
2023-04-03T07:56:03.681Z,6.79
2023-04-03T07:58:30.562Z,6.55
2023-04-03T08:00:57.278Z,6.51
2023-04-03T08:03:23.985Z,7.03
2023-04-03T08:05:51.897Z,7.42
2023-04-03T08:08:21.640Z,7.08
2023-04-03T08:10:53.174Z,6.44
2023-04-03T08:13:20.286Z,7.24
2023-04-03T08:15:47.426Z,7.03
2023-04-03T08:18:15.743Z,6.61
2023-04-03T08:20:42.789Z,6.62
2023-04-03T08:23:09.826Z,6.72
2023-04-03T08:25:41.440Z,6.20
2023-04-03T08:28:08.640Z,6.70
2023-04-03T08:30:35.713Z,7.07
2023-04-03T08:33:03.019Z,7.26
2023-04-03T08:35:30.040Z,6.95
2023-04-03T08:37:57.412Z,7.43
2023-04-03T08:40:25.008Z,7.28
2023-04-03T08:42:57.691Z,7.51
2023-04-03T08:45:54.583Z,7.65
2023-04-03T08:48:24.173Z,8.15
2023-04-03T08:51:16.216Z,7.82
2023-04-03T08:54:03.281Z,7.68
2023-04-03T08:56:31.874Z,8.81
2023-04-03T08:59:02.296Z,8.46
2023-04-03T09:01:33.410Z,8.75
2023-04-03T09:04:02.211Z,8.46
2023-04-03T09:06:33.875Z,8.84
2023-04-03T09:09:36.168Z,9.18
2023-04-03T09:12:44.950Z,10.39
2023-04-03T09:15:37.831Z,10.80
2023-04-03T09:18:25.149Z,11.41
2023-04-03T09:20:57.745Z,10.76
2023-04-03T09:23:30.495Z,10.94
2023-04-03T09:26:05.919Z,10.69
2023-04-03T09:28:49.289Z,10.80
2023-04-03T09:31:23.239Z,10.37
2023-04-03T09:34:01.599Z,10.77
2023-04-03T09:36:52.503Z,11.53
2023-04-03T09:39:22.759Z,12.33
2023-04-03T09:42:12.736Z,15.75
2023-04-03T09:44:39.878Z,18.20
2023-04-03T09:47:31.767Z,21.89
2023-04-03T09:50:14.030Z,23.84
2023-04-03T09:52:43.891Z,24.34
2023-04-03T09:55:19.816Z,23.25
2023-04-03T09:57:47.468Z,26.69
2023-04-03T10:00:27.114Z,27.32
2023-04-03T10:02:56.860Z,31.05
2023-04-03T10:05:38.393Z,29.74
2023-04-03T10:08:13.875Z,26.77
2023-04-03T10:10:46.587Z,27.19
2023-04-03T10:13:21.327Z,25.30
2023-04-03T10:15:58.624Z,26.28
2023-04-03T10:18:54.272Z,27.03
2023-04-03T10:21:32.026Z,27.36
2023-04-03T10:24:09.944Z,27.56
2023-04-03T10:26:36.630Z,30.76
2023-04-03T10:29:18.388Z,25.03
2023-04-03T10:32:10.224Z,26.23
2023-04-03T10:34:39.767Z,27.44
2023-04-03T10:37:27.189Z,28.02
2023-04-03T10:40:33.430Z,28.16
2023-04-03T10:43:14.429Z,27.86
2023-04-03T10:46:13.550Z,29.92
2023-04-03T10:48:46.028Z,28.16
2023-04-03T10:51:44.917Z,27.53
2023-04-03T10:54:21.180Z,27.64
2023-04-03T10:57:04.670Z,28.50
2023-04-03T10:59:51.362Z,26.75
2023-04-03T11:02:40.648Z,29.04
2023-04-03T11:05:15.889Z,29.16
2023-04-03T11:07:47.717Z,26.55
2023-04-03T11:10:20.321Z,24.82
2023-04-03T11:12:54.155Z,26.53
2023-04-03T11:15:22.330Z,28.07
2023-04-03T11:17:58.796Z,27.91
2023-04-03T11:20:33.790Z,27.54
2023-04-03T11:23:15.583Z,26.89
2023-04-03T11:25:45.131Z,24.12
2023-04-03T11:28:15.916Z,25.74
2023-04-03T11:30:58.205Z,26.45
2023-04-03T11:34:03.148Z,27.72
2023-04-03T11:36:37.141Z,27.71
2023-04-03T11:39:20.293Z,25.69
2023-04-03T11:41:48.160Z,27.19
2023-04-03T11:44:47.365Z,29.20
2023-04-03T11:47:49.973Z,29.22
2023-04-03T11:50:34.830Z,26.94
2023-04-03T11:53:07.399Z,29.72
2023-04-03T11:55:34.021Z,28.28
2023-04-03T11:58:03.747Z,31.20
2023-04-03T12:00:47.253Z,26.16
2023-04-03T12:03:30.090Z,23.30
2023-04-03T12:06:17.624Z,22.23
2023-04-03T12:08:49.034Z,25.20
2023-04-03T12:11:22.582Z,27.11
2023-04-03T12:13:50.380Z,27.36
2023-04-03T12:16:30.742Z,26.70
2023-04-03T12:19:04.488Z,24.32
2023-04-03T12:21:31.118Z,22.79
2023-04-03T12:24:09.591Z,18.21
2023-04-03T12:26:51.910Z,16.32
2023-04-03T12:29:42.190Z,15.26
2023-04-03T12:32:36.804Z,13.71
2023-04-03T12:35:22.250Z,12.75
2023-04-03T12:38:16.793Z,11.93
2023-04-03T12:40:43.237Z,12.12
2023-04-03T12:43:14.486Z,12.63
2023-04-03T12:45:44.358Z,12.33
2023-04-03T12:48:19.362Z,12.51
2023-04-03T12:50:47.864Z,11.56
2023-04-03T12:53:20.628Z,11.41
2023-04-03T12:55:47.360Z,12.10
2023-04-03T12:58:17.286Z,12.21
2023-04-03T13:00:43.938Z,12.70
2023-04-03T13:03:27.905Z,11.62
2023-04-03T13:06:01.333Z,11.89
2023-04-03T13:08:27.865Z,12.00
2023-04-03T13:10:59.532Z,12.66
2023-04-03T13:13:27.381Z,12.33
2023-04-03T13:15:55.413Z,12.18
2023-04-03T13:18:23.660Z,12.31
2023-04-03T13:20:51.037Z,11.80
2023-04-03T13:23:19.188Z,12.09
2023-04-03T13:25:46.525Z,12.43
2023-04-03T13:28:16.713Z,12.43
2023-04-03T13:31:17.855Z,12.66
2023-04-03T13:33:54.772Z,12.77
2023-04-03T13:36:29.539Z,12.02
2023-04-03T13:39:05.096Z,12.38
2023-04-03T13:41:36.053Z,12.06
2023-04-03T13:44:24.605Z,11.88
2023-04-03T13:46:53.555Z,11.16
2023-04-03T13:49:32.008Z,12.84
2023-04-03T13:52:07.307Z,13.23
2023-04-03T13:54:40.307Z,12.82
2023-04-03T13:57:16.002Z,12.82
2023-04-03T13:59:44.057Z,13.06
2023-04-03T14:02:40.744Z,12.81
2023-04-03T14:05:09.301Z,12.22
2023-04-03T14:07:36.283Z,13.10
2023-04-03T14:10:02.912Z,13.36
2023-04-03T14:12:42.395Z,13.42
2023-04-03T14:15:21.624Z,12.66
2023-04-03T14:17:48.982Z,12.03
2023-04-03T14:20:17.645Z,12.08
2023-04-03T14:22:44.979Z,12.19
2023-04-03T14:25:11.550Z,12.05
2023-04-03T14:27:41.276Z,11.06
2023-04-03T14:30:14.235Z,11.24
2023-04-03T14:32:41.418Z,11.45
2023-04-03T14:35:08.323Z,11.16
2023-04-03T14:37:34.842Z,11.95
2023-04-03T14:40:04.737Z,11.83
2023-04-03T14:42:34.403Z,11.94
2023-04-03T14:45:09.898Z,12.10
2023-04-03T14:47:42.710Z,12.44
2023-04-03T14:50:14.849Z,12.37
2023-04-03T14:52:42.219Z,12.50
2023-04-03T14:55:09.360Z,11.54
2023-04-03T14:57:37.118Z,11.74
2023-04-03T15:00:05.359Z,11.49
2023-04-03T15:02:33.634Z,11.61
2023-04-03T15:05:03.358Z,11.58
2023-04-03T15:07:32.421Z,11.48
2023-04-03T15:10:02.439Z,11.95
2023-04-03T15:12:28.942Z,12.16
2023-04-03T15:15:01.898Z,12.29
2023-04-03T15:17:29.552Z,12.24
2023-04-03T15:19:56.065Z,10.66
2023-04-03T15:22:22.684Z,11.26
2023-04-03T15:24:49.190Z,12.07
2023-04-03T15:27:16.461Z,11.69
2023-04-03T15:29:43.811Z,10.84
2023-04-03T15:32:10.940Z,12.30
2023-04-03T15:34:37.945Z,11.92
2023-04-03T15:37:04.445Z,12.51
2023-04-03T15:39:31.174Z,12.72
2023-04-03T15:42:00.851Z,12.41
2023-04-03T15:44:27.639Z,12.36
2023-04-03T15:46:56.199Z,12.95
2023-04-03T15:49:23.200Z,12.54
2023-04-03T15:51:49.724Z,11.69
2023-04-03T15:54:16.812Z,11.67
2023-04-03T15:56:43.395Z,11.56
2023-04-03T15:59:10.234Z,11.71
2023-04-03T16:01:38.025Z,11.68
2023-04-03T16:04:05.100Z,10.47
2023-04-03T16:06:32.798Z,10.12
2023-04-03T16:08:59.424Z,10.67
2023-04-03T16:11:27.894Z,11.02
2023-04-03T16:13:57.319Z,10.79
2023-04-03T16:16:24.708Z,10.97
2023-04-03T16:18:51.480Z,11.27
2023-04-03T16:21:18.803Z,10.95
2023-04-03T16:23:45.471Z,11.05
2023-04-03T16:26:12.226Z,10.70
2023-04-03T16:28:38.884Z,10.20
2023-04-03T16:31:06.572Z,10.46
2023-04-03T16:33:33.082Z,10.54
2023-04-03T16:35:59.886Z,10.48
2023-04-03T16:38:26.509Z,9.93
2023-04-03T16:40:58.016Z,9.90
2023-04-03T16:43:24.497Z,9.44
2023-04-03T16:45:51.152Z,10.36
2023-04-03T16:48:18.209Z,10.25
2023-04-03T16:50:54.238Z,9.68
2023-04-03T16:53:25.254Z,9.69
2023-04-03T16:55:52.235Z,10.07
2023-04-03T16:58:18.840Z,9.54
2023-04-03T17:00:45.561Z,9.30
2023-04-03T17:03:12.103Z,9.47
2023-04-03T17:05:38.892Z,9.68
2023-04-03T17:08:05.654Z,9.50
2023-04-03T17:10:32.367Z,9.32
2023-04-03T17:12:58.988Z,9.76
2023-04-03T17:15:26.371Z,10.12
2023-04-03T17:17:53.532Z,9.79
2023-04-03T17:20:20.538Z,9.87
2023-04-03T17:22:47.145Z,9.63
2023-04-03T17:25:14.085Z,9.36
2023-04-03T17:27:40.965Z,9.57
2023-04-03T17:30:08.459Z,9.27
2023-04-03T17:32:35.465Z,9.41
2023-04-03T17:35:01.976Z,9.25
2023-04-03T17:37:28.684Z,9.15
2023-04-03T17:39:55.239Z,9.25
2023-04-03T17:42:22.120Z,9.39
2023-04-03T17:44:48.642Z,9.06
2023-04-03T17:47:15.307Z,8.98
2023-04-03T17:49:42.237Z,9.15
2023-04-03T17:52:08.808Z,9.32
2023-04-03T17:54:35.359Z,9.10
2023-04-03T17:57:03.521Z,9.26
2023-04-03T17:59:30.293Z,8.40
2023-04-03T18:01:57.010Z,9.17
2023-04-03T18:04:24.096Z,8.91
2023-04-03T18:06:52.454Z,9.01
2023-04-03T18:09:26.269Z,8.96
2023-04-03T18:11:53.259Z,9.23
2023-04-03T18:14:22.708Z,9.20
2023-04-03T18:16:49.546Z,9.30
2023-04-03T18:21:47.715Z,8.89
2023-04-03T18:24:16.298Z,8.90
2023-04-03T18:26:44.560Z,9.14
2023-04-03T18:29:11.596Z,9.41
2023-04-03T18:31:41.225Z,8.42
2023-04-03T18:34:07.766Z,8.58
2023-04-03T18:36:35.611Z,8.71
2023-04-03T18:39:02.340Z,8.78
2023-04-03T18:41:31.072Z,8.86
2023-04-03T18:44:00.045Z,8.41
2023-04-03T18:46:26.595Z,8.83
2023-04-03T18:48:54.113Z,8.98
2023-04-03T18:51:21.220Z,9.05
2023-04-03T18:53:47.751Z,8.94
2023-04-03T18:56:14.277Z,8.83
2023-04-03T18:58:40.925Z,8.88
2023-04-03T19:01:07.550Z,8.81
2023-04-03T19:03:35.355Z,8.67
2023-04-03T19:06:02.818Z,8.69
2023-04-03T19:08:30.572Z,8.74
2023-04-03T19:10:57.131Z,8.74
2023-04-03T19:13:23.720Z,8.87
2023-04-03T19:15:52.091Z,8.81
2023-04-03T19:18:18.639Z,8.70
2023-04-03T19:20:45.218Z,8.71
2023-04-03T19:23:13.420Z,8.52
2023-04-03T19:25:41.732Z,8.99
2023-04-03T19:28:08.866Z,8.96
2023-04-03T19:30:38.162Z,9.00
2023-04-03T19:33:04.775Z,8.84
2023-04-03T19:35:31.801Z,8.91
2023-04-03T19:37:58.288Z,8.96
2023-04-03T19:40:25.490Z,8.30
2023-04-03T19:42:52.565Z,8.71
2023-04-03T19:45:19.815Z,8.68
2023-04-03T19:47:47.202Z,8.69
2023-04-03T19:50:13.785Z,8.96
2023-04-03T19:52:40.443Z,8.63
2023-04-03T19:55:07.669Z,8.69
2023-04-03T19:57:34.231Z,8.38
2023-04-03T20:00:01.060Z,8.42
2023-04-03T20:02:27.611Z,8.46
2023-04-03T20:04:54.147Z,8.50
2023-04-03T20:07:21.274Z,8.47
2023-04-03T20:09:47.842Z,8.31
2023-04-03T20:12:14.432Z,8.35
2023-04-03T20:14:43.707Z,8.49
2023-04-03T20:17:10.300Z,7.87
2023-04-03T20:19:36.795Z,8.03
2023-04-03T20:22:03.342Z,8.16
2023-04-03T20:24:30.961Z,7.80
2023-04-03T20:26:58.493Z,7.79
2023-04-03T20:29:26.068Z,7.91
2023-04-03T20:31:55.938Z,7.71
2023-04-03T20:34:22.575Z,7.65
2023-04-03T20:36:50.185Z,8.08
2023-04-03T20:39:21.770Z,8.31
2023-04-03T20:41:48.593Z,8.34
2023-04-03T20:44:17.661Z,8.16
2023-04-03T20:46:53.030Z,8.20
2023-04-03T20:49:21.303Z,8.08
2023-04-03T20:51:48.621Z,8.37
2023-04-03T20:54:15.208Z,7.91
2023-04-03T20:56:42.084Z,7.92
2023-04-03T20:59:10.947Z,8.30
2023-04-03T21:01:37.858Z,8.18
2023-04-03T21:04:38.078Z,7.97
2023-04-03T21:07:43.351Z,7.91
2023-04-03T21:10:47.661Z,7.97
2023-04-03T21:13:51.424Z,7.92
2023-04-03T21:16:18.481Z,7.94
2023-04-03T21:18:57.256Z,8.04
2023-04-03T21:21:26.078Z,8.02
2023-04-03T21:23:54.316Z,7.86
2023-04-03T21:26:21.833Z,8.08
2023-04-03T21:28:52.423Z,7.88
2023-04-03T21:31:22.653Z,7.85
2023-04-03T21:33:49.896Z,7.80
2023-04-03T21:36:16.548Z,7.67
2023-04-03T21:38:45.251Z,7.65
2023-04-03T21:41:11.961Z,7.73
2023-04-03T21:43:38.459Z,7.58
2023-04-03T21:46:08.200Z,7.37
2023-04-03T21:48:36.147Z,7.58
2023-04-03T21:51:04.496Z,7.46
2023-04-03T21:53:31.271Z,7.28
2023-04-03T21:55:57.792Z,7.38
2023-04-03T21:58:31.987Z,7.15
2023-04-03T22:01:12.727Z,7.09
2023-04-03T22:04:13.421Z,7.18
2023-04-03T22:06:39.976Z,6.77
2023-04-03T22:09:06.610Z,6.88
2023-04-03T22:11:33.262Z,6.97
2023-04-03T22:14:00.227Z,6.72
2023-04-03T22:16:27.460Z,6.63
2023-04-03T22:18:54.693Z,6.68
2023-04-03T22:21:21.698Z,6.57
2023-04-03T22:23:48.255Z,6.71
2023-04-03T22:26:14.853Z,6.69
2023-04-03T22:28:44.217Z,6.38
2023-04-03T22:31:14.130Z,6.44
2023-04-03T22:33:41.626Z,6.71
2023-04-03T22:36:11.049Z,6.75
2023-04-03T22:38:39.005Z,6.69
2023-04-03T22:41:07.355Z,6.84
2023-04-03T22:43:35.329Z,6.67
2023-04-03T22:46:03.221Z,6.80
2023-04-03T22:48:30.825Z,6.60
2023-04-03T22:50:57.689Z,6.73
2023-04-03T22:53:24.282Z,6.80
2023-04-03T22:55:56.929Z,6.87
2023-04-03T22:58:26.587Z,6.46
2023-04-03T23:01:03.602Z,6.57
2023-04-03T23:03:30.471Z,6.76
2023-04-03T23:05:57.450Z,6.93
2023-04-03T23:08:24.020Z,6.66
2023-04-03T23:10:54.927Z,6.35
2023-04-03T23:13:21.456Z,6.48
2023-04-03T23:15:59.104Z,6.61
2023-04-03T23:18:30.237Z,6.58
2023-04-03T23:20:58.720Z,6.48
2023-04-03T23:23:25.490Z,6.50
2023-04-03T23:25:57.218Z,6.74
2023-04-03T23:28:24.045Z,6.70
2023-04-03T23:30:51.693Z,6.38
2023-04-03T23:33:18.179Z,6.60
2023-04-03T23:35:46.712Z,6.58
2023-04-03T23:38:13.597Z,6.43
2023-04-03T23:40:41.997Z,6.36
2023-04-03T23:43:08.872Z,6.33
2023-04-03T23:45:36.052Z,6.19
2023-04-03T23:48:02.862Z,6.21
2023-04-03T23:50:29.806Z,6.10
2023-04-03T23:52:56.365Z,6.44
2023-04-03T23:55:23.250Z,6.39
2023-04-03T23:57:49.777Z,6.30
